Time;durP1;ratioP1;P1;durP2;ratioP2;P2;SDS_P1;SDS_P2;PMS_P1;PMS_P2;Temp;Humidity;BMP_temperature;BMP_pressure;BME280_temperature;BME280_humidity;BME280_pressure;Samples;Min_cycle;Max_cycle;Signal;HPM_P1;HPM_P2
2020/12/09 00:00:29;;;;;;;22.80;16.05;;;7.30;65.90;;;;;;2069759;28;20373;-76
2020/12/09 00:01:31;;;;;;;23.40;17.13;;;7.30;66.70;;;;;;2066907;28;20045;-76
2020/12/09 00:02:32;;;;;;;25.17;17.63;;;7.30;66.00;;;;;;2083427;28;20033;-76
2020/12/09 00:03:33;;;;;;;26.48;18.98;;;7.30;66.00;;;;;;2083455;28;20029;-76
2020/12/09 00:04:34;;;;;;;25.70;18.55;;;7.30;66.00;;;;;;2085042;28;20029;-76
2020/12/09 00:05:34;;;;;;;26.17;17.92;;;7.30;66.00;;;;;;2075238;28;20050;-76
2020/12/09 00:06:38;;;;;;;25.02;18.05;;;7.30;66.00;;;;;;2076355;28;20403;-76
2020/12/09 00:07:39;;;;;;;26.45;17.75;;;7.30;66.00;;;;;;2084354;28;20025;-76
2020/12/09 00:08:40;;;;;;;25.08;17.58;;;7.20;65.90;;;;;;2083076;28;20057;-76
2020/12/09 00:09:40;;;;;;;24.95;18.02;;;7.20;65.90;;;;;;2075875;28;20519;-76
2020/12/09 00:10:41;;;;;;;26.20;18.20;;;7.20;66.00;;;;;;2075788;28;20061;-76
2020/12/09 00:11:42;;;;;;;26.02;17.77;;;7.20;66.00;;;;;;2075676;28;20026;-76
2020/12/09 00:12:42;;;;;;;24.95;17.83;;;7.20;66.00;;;;;;2076493;28;20044;-76
2020/12/09 00:13:43;;;;;;;27.27;18.63;;;7.20;66.00;;;;;;2076387;28;20085;-76
2020/12/09 00:14:43;;;;;;;26.17;18.13;;;7.20;66.00;;;;;;2075219;28;20038;-76
2020/12/09 00:15:44;;;;;;;25.33;18.65;;;7.20;66.00;;;;;;2083400;28;20037;-76
2020/12/09 00:16:45;;;;;;;26.35;18.25;;;7.20;66.00;;;;;;2083297;28;20112;-76
2020/12/09 00:17:45;;;;;;;23.38;17.58;;;7.10;66.00;;;;;;2075487;28;20026;-76
2020/12/09 00:18:46;;;;;;;24.92;17.45;;;7.10;66.00;;;;;;2076396;28;20125;-76
2020/12/09 00:19:46;;;;;;;24.15;18.35;;;7.10;66.00;;;;;;2083003;28;20041;-75
2020/12/09 00:20:47;;;;;;;24.88;18.02;;;7.10;66.00;;;;;;2083376;28;20401;-76
2020/12/09 00:21:48;;;;;;;24.00;17.30;;;7.10;66.00;;;;;;2084352;28;20556;-76
2020/12/09 00:22:48;;;;;;;25.67;18.05;;;7.10;66.00;;;;;;2083579;28;20111;-76
2020/12/09 00:23:52;;;;;;;24.98;18.05;;;7.10;66.10;;;;;;2084350;28;20474;-77
2020/12/09 00:24:53;;;;;;;23.88;17.60;;;7.10;66.10;;;;;;2084378;28;20033;-76
2020/12/09 00:25:54;;;;;;;25.23;17.95;;;7.10;66.20;;;;;;2066864;28;20498;-76
2020/12/09 00:26:54;;;;;;;26.02;17.80;;;7.00;66.10;;;;;;2060193;28;20034;-76
2020/12/09 00:27:55;;;;;;;24.92;18.00;;;7.10;66.20;;;;;;2076216;28;20065;-76
2020/12/09 00:28:56;;;;;;;24.02;17.15;;;7.00;66.20;;;;;;2082690;28;20033;-76
2020/12/09 00:29:57;;;;;;;24.48;16.98;;;7.10;66.20;;;;;;2084542;28;20126;-75
2020/12/09 00:30:57;;;;;;;24.17;17.48;;;7.00;66.10;;;;;;2082779;28;20021;-76
2020/12/09 00:31:58;;;;;;;24.73;17.35;;;7.00;66.10;;;;;;2083878;28;20071;-76
2020/12/09 00:32:58;;;;;;;24.05;16.67;;;7.00;66.20;;;;;;2075491;28;20022;-76
2020/12/09 00:34:01;;;;;;;26.70;17.10;;;7.00;66.30;;;;;;2075278;28;21035;-76
2020/12/09 00:35:04;;;;;;;24.75;17.20;;;7.00;66.20;;;;;;2084502;28;20025;-77
2020/12/09 00:36:05;;;;;;;24.20;17.42;;;7.00;66.20;;;;;;2085992;28;20025;-76
2020/12/09 00:37:05;;;;;;;23.85;17.13;;;7.00;66.30;;;;;;2075403;28;20032;-76
2020/12/09 00:38:09;;;;;;;24.20;17.27;;;6.90;66.20;;;;;;2076183;28;20088;-76
2020/12/09 00:39:10;;;;;;;23.25;16.48;;;6.90;66.20;;;;;;2084307;28;20032;-76
2020/12/09 00:40:10;;;;;;;23.85;16.80;;;6.90;66.20;;;;;;2085060;28;20037;-75
2020/12/09 00:41:17;;;;;;;28.88;17.48;;;7.00;66.20;;;;;;2075082;28;20080;-76
2020/12/09 00:42:18;;;;;;;24.80;16.83;;;6.90;66.20;;;;;;2063566;28;20030;-76
2020/12/09 00:43:18;;;;;;;24.83;17.45;;;6.90;66.20;;;;;;2066650;28;20015;-76
2020/12/09 00:44:19;;;;;;;24.02;17.48;;;6.90;66.20;;;;;;2083899;28;20024;-76
2020/12/09 00:45:20;;;;;;;25.35;18.23;;;6.90;66.30;;;;;;2083690;28;20037;-76
2020/12/09 00:46:26;;;;;;;24.05;17.67;;;6.80;66.30;;;;;;2083527;28;20029;-76
2020/12/09 00:47:28;;;;;;;24.35;17.38;;;6.90;66.40;;;;;;2070962;28;20108;-76
2020/12/09 00:48:28;;;;;;;23.08;17.48;;;6.90;66.50;;;;;;2068349;28;20030;-75
2020/12/09 00:49:29;;;;;;;24.50;17.60;;;6.90;66.50;;;;;;2082350;28;20484;-76
2020/12/09 00:50:29;;;;;;;26.67;17.75;;;6.80;66.50;;;;;;2083808;28;20290;-76
2020/12/09 00:51:30;;;;;;;24.52;17.20;;;6.80;66.60;;;;;;2084443;28;20033;-76
2020/12/09 00:52:30;;;;;;;24.70;17.70;;;6.80;66.60;;;;;;2083453;28;20120;-74
2020/12/09 00:53:31;;;;;;;24.85;17.55;;;6.80;66.70;;;;;;2084126;28;20403;-75
2020/12/09 00:54:31;;;;;;;24.10;17.85;;;6.80;66.80;;;;;;2084952;28;20038;-75
2020/12/09 00:55:32;;;;;;;29.67;19.48;;;6.80;66.80;;;;;;2074082;28;20041;-75
2020/12/09 00:56:33;;;;;;;28.13;18.80;;;6.80;66.80;;;;;;2073986;28;20029;-75
2020/12/09 00:57:33;;;;;;;24.33;18.25;;;6.80;66.80;;;;;;2075821;28;20411;-74
2020/12/09 00:58:35;;;;;;;25.80;18.75;;;6.90;67.00;;;;;;2075337;28;20025;-75
2020/12/09 00:59:35;;;;;;;27.15;18.90;;;6.80;66.90;;;;;;2085029;28;20084;-75
2020/12/09 01:00:36;;;;;;;24.25;17.73;;;6.90;67.00;;;;;;2085077;28;20471;-75
2020/12/09 01:01:37;;;;;;;25.52;17.98;;;6.90;67.00;;;;;;2085140;28;20029;-75
2020/12/09 01:02:37;;;;;;;23.67;16.88;;;6.90;67.00;;;;;;2085905;28;20541;-75
2020/12/09 01:03:38;;;;;;;28.35;18.30;;;6.90;67.00;;;;;;2085786;28;20112;-75
2020/12/09 01:04:39;;;;;;;28.20;18.52;;;6.90;67.00;;;;;;2085645;28;20032;-75
2020/12/09 01:05:39;;;;;;;27.90;18.48;;;6.90;67.00;;;;;;2085224;28;20036;-75
2020/12/09 01:06:40;;;;;;;27.48;18.15;;;6.90;67.00;;;;;;2085347;28;20021;-75
2020/12/09 01:07:41;;;;;;;25.98;18.67;;;6.90;67.10;;;;;;2085537;28;20037;-75
2020/12/09 01:08:42;;;;;;;28.02;17.95;;;6.90;67.00;;;;;;2085031;28;20034;-75
2020/12/09 01:09:43;;;;;;;25.98;18.02;;;6.90;67.00;;;;;;2086457;28;20037;-75
2020/12/09 01:10:43;;;;;;;25.25;18.20;;;6.90;67.00;;;;;;2076549;28;20407;-75
2020/12/09 01:11:44;;;;;;;25.30;18.77;;;6.90;66.90;;;;;;2081062;28;20033;-75
2020/12/09 01:12:44;;;;;;;24.15;18.48;;;6.90;67.00;;;;;;2084265;28;20044;-75
2020/12/09 01:13:45;;;;;;;29.92;19.23;;;6.90;67.00;;;;;;2084238;28;20532;-75
2020/12/09 01:14:45;;;;;;;25.95;18.90;;;6.90;67.00;;;;;;2084935;28;20609;-76
2020/12/09 01:15:46;;;;;;;26.05;17.85;;;6.90;67.00;;;;;;2083941;28;20430;-75
2020/12/09 01:16:52;;;;;;;25.92;18.63;;;6.90;67.10;;;;;;2085265;28;20037;-75
2020/12/09 01:17:53;;;;;;;26.85;18.55;;;6.90;67.10;;;;;;2074729;28;20030;-75
2020/12/09 01:18:53;;;;;;;27.75;18.95;;;6.90;67.00;;;;;;2075496;28;20026;-75
2020/12/09 01:19:54;;;;;;;27.58;19.27;;;6.90;67.00;;;;;;2084838;28;20071;-75
2020/12/09 01:20:55;;;;;;;26.40;18.70;;;6.90;66.90;;;;;;2085245;28;20110;-75
2020/12/09 01:21:55;;;;;;;29.77;19.17;;;6.90;66.90;;;;;;2084948;28;20459;-75
2020/12/09 01:22:56;;;;;;;27.33;19.67;;;6.90;66.90;;;;;;2084917;28;20656;-74
2020/12/09 01:23:56;;;;;;;29.85;19.60;;;6.90;66.90;;;;;;2085744;28;20447;-74
2020/12/09 01:24:57;;;;;;;28.63;19.20;;;6.90;67.00;;;;;;2075453;28;20487;-77
2020/12/09 01:25:58;;;;;;;27.17;18.45;;;7.00;67.00;;;;;;2078324;28;20023;-76
2020/12/09 01:26:58;;;;;;;26.33;19.10;;;6.90;67.10;;;;;;2086704;28;20032;-76
2020/12/09 01:28:01;;;;;;;31.38;20.35;;;7.00;67.10;;;;;;2084438;28;20048;-76
2020/12/09 01:29:01;;;;;;;27.27;19.27;;;7.00;67.10;;;;;;2084971;28;20414;-75
2020/12/09 01:30:02;;;;;;;29.05;19.85;;;7.00;67.00;;;;;;2084904;28;20040;-76
2020/12/09 01:31:02;;;;;;;27.42;19.55;;;7.00;67.10;;;;;;2084687;28;20785;-77
2020/12/09 01:32:03;;;;;;;27.30;19.35;;;7.00;67.10;;;;;;2084940;28;20412;-76
2020/12/09 01:33:04;;;;;;;27.63;19.70;;;7.00;67.70;;;;;;2077033;28;20456;-76
2020/12/09 01:34:04;;;;;;;26.38;18.70;;;7.00;67.00;;;;;;2076034;28;20029;-76
2020/12/09 01:35:05;;;;;;;26.50;18.83;;;7.00;67.00;;;;;;2085145;28;20017;-76
2020/12/09 01:36:05;;;;;;;24.48;18.08;;;7.00;67.00;;;;;;2085896;28;20037;-76
2020/12/09 01:37:06;;;;;;;27.27;18.80;;;7.00;67.00;;;;;;2084297;28;20440;-76
2020/12/09 01:38:07;;;;;;;26.10;18.92;;;7.00;67.00;;;;;;2077358;28;20021;-76
2020/12/09 01:39:08;;;;;;;28.15;19.33;;;7.00;66.90;;;;;;2076716;28;20489;-76
2020/12/09 01:40:08;;;;;;;25.35;18.42;;;7.00;67.00;;;;;;2085324;28;20439;-77
2020/12/09 01:41:09;;;;;;;26.05;19.20;;;7.00;67.10;;;;;;2075627;28;20022;-77
2020/12/09 01:42:09;;;;;;;28.95;19.23;;;7.00;67.10;;;;;;2076050;28;20025;-77
2020/12/09 01:43:10;;;;;;;27.55;18.85;;;7.00;67.20;;;;;;2079411;28;20525;-77
2020/12/09 01:44:11;;;;;;;28.55;19.77;;;7.00;67.10;;;;;;2079674;28;20032;-77
2020/12/09 01:45:11;;;;;;;28.08;19.23;;;7.10;67.10;;;;;;2084151;28;20579;-76
2020/12/09 01:46:17;;;;;;;28.70;19.40;;;7.10;67.20;;;;;;2085750;28;20094;-76
2020/12/09 01:47:17;;;;;;;26.70;18.75;;;7.10;67.20;;;;;;2085632;28;20033;-77
2020/12/09 01:48:18;;;;;;;25.38;18.63;;;7.10;67.20;;;;;;2085818;28;20102;-77
2020/12/09 01:49:19;;;;;;;26.52;19.23;;;7.10;67.10;;;;;;2084687;28;20032;-76
2020/12/09 01:50:19;;;;;;;27.23;18.83;;;7.10;67.10;;;;;;2086045;28;20040;-77
2020/12/09 01:51:23;;;;;;;24.75;18.30;;;7.10;67.20;;;;;;2085055;28;20126;-77
2020/12/09 01:52:24;;;;;;;27.63;19.20;;;7.10;67.20;;;;;;2085106;28;20034;-76
2020/12/09 01:53:24;;;;;;;28.75;19.67;;;7.20;67.30;;;;;;2085066;28;20034;-76
2020/12/09 01:54:25;;;;;;;26.20;18.73;;;7.20;67.30;;;;;;2084581;28;20029;-76
2020/12/09 01:55:25;;;;;;;25.98;18.33;;;7.20;67.30;;;;;;2075197;28;20065;-76
2020/12/09 01:56:27;;;;;;;25.25;18.52;;;7.20;67.20;;;;;;2075913;28;20097;-76
2020/12/09 01:57:27;;;;;;;26.85;19.02;;;7.20;67.10;;;;;;2084720;28;20035;-76
2020/12/09 01:58:28;;;;;;;23.60;16.83;;;7.20;67.10;;;;;;2075144;28;20040;-73
2020/12/09 01:59:28;;;;;;;25.15;18.00;;;7.20;67.10;;;;;;2075813;28;20072;-76
2020/12/09 02:00:29;;;;;;;26.05;18.52;;;7.20;67.10;;;;;;2083587;28;20059;-77
2020/12/09 02:01:32;;;;;;;24.48;17.73;;;7.20;67.00;;;;;;2083864;28;20087;-76
2020/12/09 02:02:32;;;;;;;26.10;18.90;;;7.30;67.00;;;;;;2084449;28;20416;-76
2020/12/09 02:03:33;;;;;;;26.85;18.52;;;7.30;66.90;;;;;;2084879;28;20097;-76
2020/12/09 02:04:34;;;;;;;28.90;18.77;;;7.30;66.90;;;;;;2084885;28;20454;-77
2020/12/09 02:05:36;;;;;;;27.35;19.27;;;7.30;66.80;;;;;;2084110;28;20028;-77
2020/12/09 02:06:37;;;;;;;27.67;19.58;;;7.30;66.70;;;;;;2079710;28;20041;-77
2020/12/09 02:07:37;;;;;;;29.35;19.00;;;7.30;66.70;;;;;;2079675;28;20033;-76
2020/12/09 02:08:38;;;;;;;29.33;19.95;;;7.30;66.70;;;;;;2084152;28;20035;-76
2020/12/09 02:09:39;;;;;;;26.15;18.83;;;7.30;66.60;;;;;;2084721;28;20082;-77
2020/12/09 02:10:39;;;;;;;30.10;19.60;;;7.30;66.60;;;;;;2084924;28;20057;-76
2020/12/09 02:11:40;;;;;;;31.98;20.00;;;7.30;66.60;;;;;;2084681;28;20021;-77
2020/12/09 02:12:40;;;;;;;28.08;19.83;;;7.30;66.50;;;;;;2084887;28;20120;-76
2020/12/09 02:13:45;;;;;;;29.00;18.80;;;7.30;66.50;;;;;;2084519;28;20037;-77
2020/12/09 02:14:46;;;;;;;26.48;18.58;;;7.30;66.50;;;;;;2084998;28;20036;-77
2020/12/09 02:15:47;;;;;;;30.17;20.13;;;7.30;66.50;;;;;;2067288;28;20045;-77
2020/12/09 02:16:52;;;;;;;27.20;19.45;;;7.30;66.40;;;;;;2068344;28;20376;-74
2020/12/09 02:17:53;;;;;;;25.77;19.33;;;7.30;66.50;;;;;;2085132;28;20036;-76
2020/12/09 02:18:53;;;;;;;30.08;19.58;;;7.30;66.50;;;;;;2076622;28;20040;-76
2020/12/09 02:19:54;;;;;;;26.70;19.60;;;7.30;66.60;;;;;;2076997;28;20029;-75
2020/12/09 02:20:54;;;;;;;27.67;19.35;;;7.30;66.50;;;;;;2084813;28;20094;-75
2020/12/09 02:22:08;;;;;;;27.08;19.23;;;7.30;66.50;;;;;;2085231;28;20044;-75
2020/12/09 02:23:09;;;;;;;25.95;17.80;;;7.40;66.50;;;;;;2076150;28;20020;-76
2020/12/09 02:24:09;;;;;;;29.17;20.23;;;7.30;66.40;;;;;;2073737;28;20018;-76
2020/12/09 02:25:10;;;;;;;28.73;18.50;;;7.30;66.40;;;;;;2084172;28;20029;-76
2020/12/09 02:26:10;;;;;;;29.27;19.10;;;7.40;66.50;;;;;;2085320;28;20040;-76
2020/12/09 02:27:11;;;;;;;26.63;18.98;;;7.30;66.40;;;;;;2075902;28;20025;-76
2020/12/09 02:28:12;;;;;;;29.00;19.70;;;7.40;66.50;;;;;;2076196;28;20587;-76
2020/12/09 02:29:13;;;;;;;28.15;19.48;;;7.30;66.50;;;;;;2083673;28;20095;-76
2020/12/09 02:30:14;;;;;;;32.08;20.55;;;7.40;66.60;;;;;;2075601;28;20104;-76
2020/12/09 02:31:15;;;;;;;33.15;20.98;;;7.40;66.60;;;;;;2078984;28;20901;-76
2020/12/09 02:32:15;;;;;;;31.92;20.55;;;7.40;66.60;;;;;;2083785;28;20362;-76
2020/12/09 02:33:16;;;;;;;28.35;20.08;;;7.40;66.60;;;;;;2079803;28;20421;-76
2020/12/09 02:34:16;;;;;;;28.90;19.75;;;7.40;66.60;;;;;;2077342;28;20579;-76
2020/12/09 02:35:17;;;;;;;30.70;21.55;;;7.40;66.60;;;;;;2085224;28;20029;-76
2020/12/09 02:36:17;;;;;;;31.83;21.10;;;7.40;66.60;;;;;;2085113;28;20027;-76
2020/12/09 02:37:18;;;;;;;30.02;21.58;;;7.40;66.60;;;;;;2076641;28;20034;-76
2020/12/09 02:38:18;;;;;;;28.40;20.48;;;7.40;66.50;;;;;;2075567;28;20151;-76
2020/12/09 02:39:36;;;;;;;30.08;20.80;;;7.40;66.40;;;;;;2084615;28;20101;-76
2020/12/09 02:40:38;;;;;;;29.88;21.05;;;7.40;66.30;;;;;;2085396;28;20037;-75
2020/12/09 02:41:38;;;;;;;28.83;19.65;;;7.40;66.30;;;;;;2084722;28;20033;-76
2020/12/09 02:42:39;;;;;;;33.30;22.00;;;7.40;66.30;;;;;;2084296;28;20120;-76
2020/12/09 02:43:40;;;;;;;29.83;20.90;;;7.40;66.30;;;;;;2085008;28;20038;-76
2020/12/09 02:44:40;;;;;;;33.08;21.77;;;7.40;66.30;;;;;;2085154;28;20587;-76
2020/12/09 02:45:41;;;;;;;29.08;20.83;;;7.40;66.20;;;;;;2085346;28;20571;-76
2020/12/09 02:46:41;;;;;;;32.45;21.48;;;7.40;66.20;;;;;;2084302;28;20455;-76
2020/12/09 02:47:42;;;;;;;32.25;22.20;;;7.40;66.10;;;;;;2083740;28;20383;-76
2020/12/09 02:48:42;;;;;;;31.30;20.90;;;7.40;66.10;;;;;;2084618;28;20466;-76
2020/12/09 02:49:43;;;;;;;32.65;22.05;;;7.40;66.10;;;;;;2075802;28;20029;-76
2020/12/09 02:50:44;;;;;;;30.73;21.35;;;7.40;66.10;;;;;;2075284;28;20034;-76
2020/12/09 02:51:45;;;;;;;34.40;23.15;;;7.40;66.10;;;;;;2084425;28;20103;-76
2020/12/09 02:52:45;;;;;;;32.95;22.77;;;7.40;66.10;;;;;;2084280;28;20087;-76
2020/12/09 02:53:46;;;;;;;34.65;23.00;;;7.40;66.80;;;;;;2077454;28;20519;-77
2020/12/09 02:54:46;;;;;;;32.35;23.33;;;7.40;66.10;;;;;;2075867;28;20034;-76
2020/12/09 02:55:47;;;;;;;33.88;24.13;;;7.40;66.00;;;;;;2072839;28;20165;-76
2020/12/09 02:56:48;;;;;;;34.17;24.25;;;7.40;66.00;;;;;;2079940;28;20034;-76
2020/12/09 02:57:49;;;;;;;39.53;25.42;;;7.40;66.00;;;;;;2083973;28;20092;-76
2020/12/09 02:58:49;;;;;;;37.55;24.70;;;7.40;65.90;;;;;;2083860;28;20044;-76
2020/12/09 02:59:50;;;;;;;37.85;24.00;;;7.40;65.90;;;;;;2084129;28;20013;-76
2020/12/09 03:00:50;;;;;;;33.67;24.02;;;7.40;65.90;;;;;;2084322;28;20435;-76
2020/12/09 03:01:51;;;;;;;36.78;24.30;;;7.40;65.90;;;;;;2084537;28;20035;-75
2020/12/09 03:02:51;;;;;;;37.05;25.52;;;7.40;65.90;;;;;;2085206;28;20431;-75
2020/12/09 03:03:52;;;;;;;36.85;23.75;;;7.40;66.00;;;;;;2084402;28;20618;-75
2020/12/09 03:04:52;;;;;;;36.80;24.58;;;7.40;66.00;;;;;;2083337;28;20032;-76
2020/12/09 03:05:54;;;;;;;36.85;24.35;;;7.40;65.90;;;;;;2084820;28;20064;-76
2020/12/09 03:06:55;;;;;;;40.35;25.15;;;7.40;65.90;;;;;;2085514;28;20032;-76
2020/12/09 03:07:55;;;;;;;34.13;22.70;;;7.40;66.00;;;;;;2084410;28;20025;-76
2020/12/09 03:08:56;;;;;;;33.83;22.88;;;7.30;65.90;;;;;;2084446;28;20035;-76
2020/12/09 03:09:57;;;;;;;34.97;23.30;;;7.40;65.90;;;;;;2075878;28;20048;-77
2020/12/09 03:10:57;;;;;;;31.88;22.63;;;7.30;65.80;;;;;;2070550;28;20036;-76
2020/12/09 03:11:58;;;;;;;35.20;23.08;;;7.40;65.90;;;;;;2075529;28;20037;-76
2020/12/09 03:12:58;;;;;;;34.33;22.52;;;7.30;65.90;;;;;;2083224;28;20458;-76
2020/12/09 03:13:59;;;;;;;33.30;22.45;;;7.30;65.80;;;;;;2083183;28;20103;-76
2020/12/09 03:15:00;;;;;;;33.78;22.80;;;7.30;65.70;;;;;;2083962;28;20064;-77
2020/12/09 03:16:01;;;;;;;35.13;23.23;;;7.40;65.90;;;;;;2082502;28;21043;-77
2020/12/09 03:17:01;;;;;;;34.08;21.73;;;7.30;65.80;;;;;;2076977;28;20645;-76
2020/12/09 03:18:02;;;;;;;31.75;22.05;;;7.30;65.90;;;;;;2078367;28;20048;-77
2020/12/09 03:19:02;;;;;;;34.10;22.05;;;7.30;65.90;;;;;;2084062;28;20392;-77
2020/12/09 03:20:03;;;;;;;31.02;20.27;;;7.30;66.00;;;;;;2075968;28;20049;-77
2020/12/09 03:21:06;;;;;;;31.90;21.23;;;7.30;66.00;;;;;;2079462;28;20113;-77
2020/12/09 03:22:07;;;;;;;33.90;22.17;;;7.30;65.90;;;;;;2077239;28;20021;-77
2020/12/09 03:23:07;;;;;;;29.17;20.02;;;7.30;65.90;;;;;;2075705;28;20025;-77
2020/12/09 03:24:11;;;;;;;32.08;20.77;;;7.30;66.00;;;;;;2078132;28;20560;-77
2020/12/09 03:25:12;;;;;;;31.08;20.92;;;7.30;66.00;;;;;;2075712;28;20029;-77
2020/12/09 03:26:12;;;;;;;32.50;21.77;;;7.30;65.90;;;;;;2074416;28;20336;-74
2020/12/09 03:27:13;;;;;;;34.30;21.90;;;7.30;65.90;;;;;;2085043;28;20108;-75
2020/12/09 03:28:13;;;;;;;35.38;22.20;;;7.30;65.90;;;;;;2084141;28;20049;-76
2020/12/09 03:29:14;;;;;;;34.92;22.23;;;7.30;65.70;;;;;;2084300;28;20390;-76
2020/12/09 03:30:15;;;;;;;35.15;22.17;;;7.30;65.60;;;;;;2084129;28;20927;-74
2020/12/09 03:31:15;;;;;;;35.78;22.45;;;7.30;65.50;;;;;;2083708;28;20098;-76
2020/12/09 03:32:16;;;;;;;36.65;22.95;;;7.20;65.40;;;;;;2075196;28;20530;-77
2020/12/09 03:33:16;;;;;;;40.47;24.42;;;7.20;65.30;;;;;;2075736;28;20063;-77
2020/12/09 03:34:17;;;;;;;38.95;24.73;;;7.20;65.30;;;;;;2083750;28;20044;-77
2020/12/09 03:35:17;;;;;;;38.38;23.45;;;7.20;65.10;;;;;;2083992;28;20025;-77
2020/12/09 03:36:18;;;;;;;37.63;23.23;;;7.20;65.10;;;;;;2083222;28;20367;-77
2020/12/09 03:37:18;;;;;;;37.47;24.50;;;7.20;65.10;;;;;;2084635;28;20021;-76
2020/12/09 03:38:19;;;;;;;35.97;22.83;;;7.20;65.00;;;;;;2083988;28;20033;-76
2020/12/09 03:39:19;;;;;;;37.13;22.67;;;7.10;64.90;;;;;;2075662;28;20129;-77
2020/12/09 03:40:20;;;;;;;35.67;22.30;;;7.20;64.90;;;;;;2076290;28;20368;-77
2020/12/09 03:41:20;;;;;;;31.88;21.58;;;7.10;64.70;;;;;;2084583;28;20032;-76
2020/12/09 03:42:21;;;;;;;35.13;21.92;;;7.10;64.70;;;;;;2067667;28;20097;-76
2020/12/09 03:43:22;;;;;;;31.00;20.65;;;7.10;64.70;;;;;;2068206;28;20022;-76
2020/12/09 03:44:22;;;;;;;36.45;21.77;;;7.10;64.70;;;;;;2084646;28;20040;-75
2020/12/09 03:45:23;;;;;;;35.50;22.45;;;7.10;64.70;;;;;;2083726;28;20017;-76
2020/12/09 03:46:23;;;;;;;31.45;20.20;;;7.00;64.70;;;;;;2083513;28;20017;-76
2020/12/09 03:47:24;;;;;;;33.75;20.88;;;7.00;64.80;;;;;;2084299;28;20030;-76
2020/12/09 03:48:25;;;;;;;31.90;20.50;;;7.00;64.90;;;;;;2084182;28;20022;-76
2020/12/09 03:49:26;;;;;;;31.42;20.27;;;7.00;65.00;;;;;;2082999;28;20063;-76
2020/12/09 03:50:26;;;;;;;29.88;19.70;;;6.90;65.00;;;;;;2084612;28;20029;-76
2020/12/09 03:51:27;;;;;;;31.30;20.63;;;6.90;65.10;;;;;;2085090;28;20031;-76
2020/12/09 03:52:27;;;;;;;34.10;20.30;;;6.90;65.10;;;;;;2083490;28;20032;-77
2020/12/09 03:53:32;;;;;;;31.25;19.63;;;6.90;65.20;;;;;;2076933;28;20371;-77
2020/12/09 03:54:32;;;;;;;32.33;20.40;;;6.90;65.20;;;;;;2084886;28;20017;-77
2020/12/09 03:55:33;;;;;;;29.23;20.08;;;6.90;65.30;;;;;;2084168;28;20079;-77
2020/12/09 03:56:33;;;;;;;31.80;20.75;;;6.90;65.30;;;;;;2084701;28;20637;-76
2020/12/09 03:57:34;;;;;;;33.35;20.08;;;6.90;65.40;;;;;;2083558;28;20383;-76
2020/12/09 03:58:34;;;;;;;30.50;19.98;;;6.80;65.30;;;;;;2083977;28;20033;-77
2020/12/09 03:59:35;;;;;;;34.80;21.65;;;6.80;65.30;;;;;;2084189;28;20029;-76
2020/12/09 04:00:35;;;;;;;38.45;22.02;;;6.80;65.40;;;;;;2084293;28;20029;-76
2020/12/09 04:01:36;;;;;;;36.30;21.13;;;6.80;65.40;;;;;;2075446;28;20404;-76
2020/12/09 04:02:36;;;;;;;34.83;21.48;;;6.80;65.40;;;;;;2075654;28;20029;-76
2020/12/09 04:03:37;;;;;;;34.22;21.25;;;6.80;65.60;;;;;;2084379;28;20335;-76
2020/12/09 04:04:37;;;;;;;34.67;20.02;;;6.80;65.60;;;;;;2083832;28;20025;-76
2020/12/09 04:05:38;;;;;;;38.97;21.85;;;6.80;65.70;;;;;;2084855;28;20032;-76
2020/12/09 04:06:39;;;;;;;31.52;20.13;;;6.80;65.80;;;;;;2082075;28;20504;-77
2020/12/09 04:07:39;;;;;;;35.10;20.95;;;6.80;65.90;;;;;;2078690;28;20064;-76
2020/12/09 04:08:40;;;;;;;39.83;22.17;;;6.80;65.90;;;;;;2084837;28;20048;-76
2020/12/09 04:09:40;;;;;;;37.67;23.10;;;6.80;65.90;;;;;;2083335;28;20367;-76
2020/12/09 04:10:41;;;;;;;38.90;21.73;;;6.80;66.00;;;;;;2084470;28;20617;-76
2020/12/09 04:11:42;;;;;;;38.03;22.65;;;6.80;66.00;;;;;;2084184;28;20487;-75
2020/12/09 04:12:42;;;;;;;40.08;22.73;;;6.80;65.90;;;;;;2084348;28;20128;-76
2020/12/09 04:13:43;;;;;;;36.05;21.33;;;6.80;65.90;;;;;;2075206;28;20385;-76
2020/12/09 04:14:43;;;;;;;35.05;22.23;;;6.80;66.00;;;;;;2075494;28;20530;-76
2020/12/09 04:15:44;;;;;;;34.08;20.67;;;6.70;66.00;;;;;;2084208;28;20049;-76
2020/12/09 04:16:45;;;;;;;35.97;21.85;;;6.70;65.90;;;;;;2084654;28;20059;-76
2020/12/09 04:17:45;;;;;;;39.20;21.48;;;6.80;66.00;;;;;;2083907;28;20115;-77
2020/12/09 04:18:46;;;;;;;32.78;21.15;;;6.70;65.80;;;;;;2085112;28;20203;-76
2020/12/09 04:19:47;;;;;;;34.47;21.20;;;6.80;65.80;;;;;;2083519;28;20048;-75
2020/12/09 04:20:48;;;;;;;32.97;20.83;;;6.70;65.70;;;;;;2075330;28;20061;-76
2020/12/09 04:21:48;;;;;;;35.10;21.40;;;6.70;65.60;;;;;;2075076;28;20615;-77
2020/12/09 04:22:49;;;;;;;33.58;20.98;;;6.70;65.70;;;;;;2083798;28;20018;-76
2020/12/09 04:23:49;;;;;;;30.98;20.40;;;6.70;65.70;;;;;;2084677;28;20029;-76
2020/12/09 04:24:50;;;;;;;31.35;19.83;;;6.70;65.60;;;;;;2084244;28;20036;-76
2020/12/09 04:25:51;;;;;;;32.33;20.83;;;6.70;65.60;;;;;;2083651;28;20439;-77
2020/12/09 04:26:51;;;;;;;33.83;21.30;;;6.70;65.60;;;;;;2084095;28;20367;-76
2020/12/09 04:27:52;;;;;;;36.92;22.67;;;6.70;65.60;;;;;;2083694;28;20479;-76
2020/12/09 04:28:52;;;;;;;34.60;21.33;;;6.70;65.60;;;;;;2084431;28;20079;-76
2020/12/09 04:29:53;;;;;;;32.67;20.48;;;6.70;65.60;;;;;;2082863;28;20036;-76
2020/12/09 04:30:53;;;;;;;32.00;22.00;;;6.70;65.60;;;;;;2083512;28;20044;-76
2020/12/09 04:31:54;;;;;;;33.90;21.75;;;6.70;65.60;;;;;;2084844;28;20362;-77
2020/12/09 04:32:54;;;;;;;36.28;22.15;;;6.60;65.50;;;;;;2074971;28;20826;-76
2020/12/09 04:33:56;;;;;;;33.90;21.67;;;6.60;65.50;;;;;;2067859;28;20050;-76
2020/12/09 04:34:58;;;;;;;33.03;21.10;;;6.60;65.60;;;;;;2076824;28;20448;-76
2020/12/09 04:36:03;;;;;;;36.10;22.08;;;6.60;65.40;;;;;;2085028;28;20480;-77
2020/12/09 04:37:04;;;;;;;33.45;22.08;;;6.60;65.40;;;;;;2085493;28;20112;-77
2020/12/09 04:38:05;;;;;;;32.95;21.73;;;6.60;65.40;;;;;;2076828;28;20018;-74
2020/12/09 04:39:06;;;;;;;35.70;21.77;;;6.50;65.40;;;;;;2076932;28;20029;-77
2020/12/09 04:40:07;;;;;;;34.78;22.10;;;6.50;65.40;;;;;;2085193;28;20426;-76
2020/12/09 04:41:08;;;;;;;30.95;20.65;;;6.50;65.40;;;;;;2086631;28;20403;-77
2020/12/09 04:42:08;;;;;;;32.05;21.05;;;6.50;65.50;;;;;;2086717;28;20082;-77
2020/12/09 04:43:09;;;;;;;31.58;21.83;;;6.50;65.50;;;;;;2079163;28;20029;-76
2020/12/09 04:44:09;;;;;;;32.42;21.20;;;6.50;66.20;;;;;;2085277;28;20402;-77
2020/12/09 04:45:10;;;;;;;33.10;22.25;;;6.50;65.50;;;;;;2077187;28;20021;-77
2020/12/09 04:46:11;;;;;;;32.53;21.08;;;6.40;65.40;;;;;;2076587;28;20025;-75
2020/12/09 04:47:18;;;;;;;35.30;21.77;;;6.40;65.50;;;;;;2080391;28;20017;-77
2020/12/09 04:48:28;;;;;;;32.75;21.13;;;6.40;65.50;;;;;;2081517;28;20026;-75
2020/12/09 04:49:39;;;;;;;30.27;19.75;;;6.40;65.50;;;;;;2086914;28;20032;-75
2020/12/09 04:51:01;;;;;;;34.25;22.55;;;6.40;65.50;;;;;;2085626;28;20044;-74
2020/12/09 04:52:30;;;;;;;35.53;21.88;;;6.40;65.50;;;;;;2077426;28;20029;-75
2020/12/09 04:53:31;;;;;;;33.03;21.08;;;6.30;65.30;;;;;;2067964;28;20747;-75
2020/12/09 04:54:42;;;;;;;36.05;21.38;;;6.40;65.30;;;;;;2069121;28;20061;-75
2020/12/09 04:55:51;;;;;;;32.42;21.05;;;6.30;65.30;;;;;;2069981;28;20097;-76
2020/12/09 04:56:55;;;;;;;33.08;21.40;;;6.30;65.30;;;;;;2081545;28;20029;-76
2020/12/09 04:57:56;;;;;;;32.83;20.92;;;6.30;65.30;;;;;;2085483;28;20362;-75
2020/12/09 04:58:57;;;;;;;31.92;20.88;;;6.20;65.30;;;;;;2076533;28;20025;-76
2020/12/09 05:00:00;;;;;;;36.60;21.85;;;6.20;65.40;;;;;;2068522;28;20329;-75
2020/12/09 05:01:06;;;;;;;36.90;22.67;;;6.20;65.40;;;;;;2075993;28;20128;-76
2020/12/09 05:02:11;;;;;;;35.30;21.35;;;6.20;65.60;;;;;;2084673;28;20014;-76
2020/12/09 05:03:17;;;;;;;34.28;21.60;;;6.10;65.50;;;;;;2077310;28;20100;-76
2020/12/09 05:04:24;;;;;;;39.70;21.20;;;6.10;65.60;;;;;;2076663;28;20105;-76
2020/12/09 05:05:25;;;;;;;32.50;20.70;;;6.10;65.70;;;;;;2084967;28;20064;-76
2020/12/09 05:06:26;;;;;;;39.28;22.50;;;6.10;66.40;;;;;;2075639;28;20026;-76
2020/12/09 05:07:35;;;;;;;32.40;20.52;;;6.10;65.70;;;;;;2075187;28;20172;-75
2020/12/09 05:08:37;;;;;;;33.42;21.15;;;6.10;65.70;;;;;;2081702;28;20036;-75
2020/12/09 05:09:44;;;;;;;37.00;22.35;;;6.10;65.80;;;;;;2070011;28;20492;-75
2020/12/09 05:10:57;;;;;;;34.03;21.88;;;6.10;66.00;;;;;;2071958;28;20128;-75
2020/12/09 05:12:04;;;;;;;34.05;21.55;;;6.00;65.90;;;;;;2082791;28;20032;-75
2020/12/09 05:13:06;;;;;;;32.85;21.83;;;6.00;65.90;;;;;;2085006;28;20086;-75
2020/12/09 05:14:10;;;;;;;31.35;20.73;;;6.00;65.80;;;;;;2084922;28;20433;-75
2020/12/09 05:15:16;;;;;;;33.22;20.95;;;6.00;65.80;;;;;;2084810;28;20025;-75